Time;durP1;ratioP1;P1;durP2;ratioP2;P2;SDS_P1;SDS_P2;PMS_P1;PMS_P2;Temp;Humidity;BMP_temperature;BMP_pressure;BME280_temperature;BME280_humidity;BME280_pressure;Samples;Min_cycle;Max_cycle;Signal;HPM_P1;HPM_P2
2023/08/30 00:02:04;;;;;;;16.77;12.73;;;;;;;;;;5004393;28;20072;-79
2023/08/30 00:04:30;;;;;;;18.50;12.57;;;;;;;;;;5037810;28;20367;-79
2023/08/30 00:06:57;;;;;;;17.55;12.30;;;;;;;;;;5036882;28;20045;-79
2023/08/30 00:09:25;;;;;;;19.20;12.85;;;;;;;;;;5039010;28;20541;-78
2023/08/30 00:11:51;;;;;;;17.77;12.05;;;;;;;;;;5039370;28;20024;-78
2023/08/30 00:14:17;;;;;;;17.02;11.90;;;;;;;;;;5032272;28;20067;-77
2023/08/30 00:16:43;;;;;;;18.08;12.93;;;;;;;;;;5042306;28;20107;-79
2023/08/30 00:19:09;;;;;;;19.58;13.07;;;;;;;;;;5031669;28;20059;-77
2023/08/30 00:21:36;;;;;;;20.65;13.75;;;;;;;;;;5045876;28;20587;-78
2023/08/30 00:24:02;;;;;;;23.10;14.48;;;;;;;;;;5004703;28;20049;-77
2023/08/30 00:26:28;;;;;;;17.85;13.80;;;;;;;;;;5017866;28;20113;-77
2023/08/30 00:28:55;;;;;;;20.73;13.73;;;;;;;;;;5039041;28;20017;-77
2023/08/30 00:31:22;;;;;;;17.67;13.75;;;;;;;;;;5040903;28;20021;-78
2023/08/30 00:33:49;;;;;;;18.35;13.25;;;;;;;;;;5055148;28;20482;-79
2023/08/30 00:36:17;;;;;;;20.80;13.38;;;;;;;;;;5052170;28;20471;-79
2023/08/30 00:38:43;;;;;;;19.45;13.75;;;;;;;;;;5028078;28;20057;-78
2023/08/30 00:41:09;;;;;;;18.50;13.98;;;;;;;;;;5042055;28;20033;-78
2023/08/30 00:43:35;;;;;;;19.40;13.25;;;;;;;;;;5012771;28;20045;-79
2023/08/30 00:46:01;;;;;;;19.10;13.05;;;;;;;;;;5019245;28;20080;-79
2023/08/30 00:48:28;;;;;;;20.13;13.40;;;;;;;;;;5019696;28;20029;-79
2023/08/30 00:50:55;;;;;;;20.13;13.50;;;;;;;;;;5016733;28;20394;-79
2023/08/30 00:53:22;;;;;;;18.73;13.77;;;;;;;;;;5026366;28;20506;-79
2023/08/30 00:55:48;;;;;;;16.67;13.00;;;;;;;;;;5013170;28;20044;-79
2023/08/30 00:58:15;;;;;;;17.23;12.00;;;;;;;;;;5015014;28;20193;-78
2023/08/30 01:00:41;;;;;;;17.23;12.20;;;;;;;;;;5012270;28;20044;-78
2023/08/30 01:03:10;;;;;;;18.75;12.93;;;;;;;;;;5007544;28;20030;-78
2023/08/30 01:05:39;;;;;;;18.02;12.27;;;;;;;;;;5037347;28;20138;-79
2023/08/30 01:08:08;;;;;;;16.65;11.98;;;;;;;;;;5006813;28;20132;-77
2023/08/30 01:10:53;;;;;;;17.92;11.43;;;;;;;;;;5035640;28;20484;-77
2023/08/30 01:13:20;;;;;;;16.20;11.30;;;;;;;;;;5016150;28;20387;-77
2023/08/30 01:15:48;;;;;;;16.02;10.93;;;;;;;;;;5019128;28;20502;-77
2023/08/30 01:18:16;;;;;;;17.92;11.63;;;;;;;;;;5023141;28;20017;-75
2023/08/30 01:20:43;;;;;;;15.57;11.18;;;;;;;;;;5024130;28;20029;-77
2023/08/30 01:23:18;;;;;;;14.23;10.98;;;;;;;;;;5030509;28;20040;-78
2023/08/30 01:25:44;;;;;;;16.63;11.52;;;;;;;;;;5046314;28;20021;-76
2023/08/30 01:28:10;;;;;;;19.55;12.45;;;;;;;;;;5030682;28;20052;-78
2023/08/30 01:30:38;;;;;;;16.15;12.02;;;;;;;;;;5020818;28;20499;-76
2023/08/30 01:33:05;;;;;;;19.33;11.77;;;;;;;;;;5031438;28;20037;-78
2023/08/30 01:35:35;;;;;;;16.02;11.95;;;;;;;;;;5031714;28;20046;-79
2023/08/30 01:38:20;;;;;;;17.77;11.25;;;;;;;;;;5035166;28;20026;-77
2023/08/30 01:40:47;;;;;;;15.52;11.82;;;;;;;;;;5026905;28;20098;-77
2023/08/30 01:43:15;;;;;;;17.08;12.23;;;;;;;;;;5024851;28;20041;-80
2023/08/30 01:45:42;;;;;;;20.85;12.15;;;;;;;;;;5026911;28;20108;-78
2023/08/30 01:48:12;;;;;;;18.48;13.07;;;;;;;;;;5033537;28;20037;-78
2023/08/30 01:50:43;;;;;;;21.15;12.13;;;;;;;;;;5009997;28;20136;-78
2023/08/30 01:53:11;;;;;;;19.52;12.43;;;;;;;;;;5021085;28;20034;-78
2023/08/30 01:55:38;;;;;;;21.80;12.38;;;;;;;;;;5029318;28;20057;-78
2023/08/30 01:58:04;;;;;;;19.17;11.48;;;;;;;;;;5007364;28;20120;-78
2023/08/30 02:00:31;;;;;;;17.55;11.77;;;;;;;;;;5014820;28;20061;-78
2023/08/30 02:02:58;;;;;;;18.35;12.18;;;;;;;;;;5008735;28;20566;-77
2023/08/30 02:05:25;;;;;;;19.20;12.25;;;;;;;;;;5031160;28;20029;-77
2023/08/30 02:07:51;;;;;;;22.58;12.27;;;;;;;;;;5021026;28;20105;-78
2023/08/30 02:10:22;;;;;;;19.15;12.10;;;;;;;;;;5026771;28;20110;-78
2023/08/30 02:12:50;;;;;;;16.88;13.00;;;;;;;;;;5030939;28;20045;-80
2023/08/30 02:15:18;;;;;;;20.65;13.85;;;;;;;;;;5038430;28;20100;-76
2023/08/30 02:17:44;;;;;;;20.40;12.80;;;;;;;;;;5023373;28;20013;-77
2023/08/30 02:20:11;;;;;;;18.85;12.63;;;;;;;;;;5028848;28;20029;-76
2023/08/30 02:22:37;;;;;;;19.33;12.02;;;;;;;;;;5011683;28;20037;-78
2023/08/30 02:25:04;;;;;;;17.15;12.20;;;;;;;;;;5025281;28;20041;-78
2023/08/30 02:27:31;;;;;;;19.60;12.90;;;;;;;;;;5036927;28;20021;-78
2023/08/30 02:29:57;;;;;;;18.52;12.25;;;;;;;;;;5010052;28;20041;-79
2023/08/30 02:32:25;;;;;;;19.67;12.15;;;;;;;;;;5004412;28;20038;-78
2023/08/30 02:34:52;;;;;;;16.58;11.60;;;;;;;;;;5030265;28;20065;-77
2023/08/30 02:37:20;;;;;;;17.92;11.95;;;;;;;;;;5017997;28;20084;-78
2023/08/30 02:39:47;;;;;;;20.08;12.48;;;;;;;;;;5009010;28;20029;-79
2023/08/30 02:42:13;;;;;;;17.73;12.48;;;;;;;;;;5028542;28;20486;-78
2023/08/30 02:44:39;;;;;;;20.05;13.13;;;;;;;;;;5014775;28;20040;-77
2023/08/30 02:47:05;;;;;;;19.40;13.52;;;;;;;;;;5012797;28;20467;-78
2023/08/30 02:49:32;;;;;;;18.85;13.43;;;;;;;;;;5012444;28;20029;-78
2023/08/30 02:51:59;;;;;;;22.83;13.93;;;;;;;;;;5037404;28;20028;-78
2023/08/30 02:54:25;;;;;;;22.60;12.85;;;;;;;;;;5013919;28;20033;-79
2023/08/30 02:56:51;;;;;;;18.83;12.65;;;;;;;;;;5010609;28;20036;-79
2023/08/30 02:59:18;;;;;;;24.38;13.45;;;;;;;;;;5011859;28;20060;-79
2023/08/30 03:01:45;;;;;;;21.67;13.68;;;;;;;;;;5017759;28;20029;-79
2023/08/30 03:04:14;;;;;;;21.73;13.30;;;;;;;;;;5015925;28;20090;-78
2023/08/30 03:06:41;;;;;;;21.67;13.23;;;;;;;;;;5014158;28;20183;-78
2023/08/30 03:09:07;;;;;;;20.70;14.30;;;;;;;;;;5004594;28;20033;-79
2023/08/30 03:11:36;;;;;;;21.75;14.10;;;;;;;;;;5022676;28;20056;-78
2023/08/30 03:14:05;;;;;;;21.30;13.98;;;;;;;;;;5025833;28;20040;-77
2023/08/30 03:16:32;;;;;;;29.80;13.98;;;;;;;;;;5043566;28;20111;-82
2023/08/30 03:18:58;;;;;;;22.02;12.73;;;;;;;;;;5009894;28;20038;-79
2023/08/30 03:21:24;;;;;;;20.50;12.70;;;;;;;;;;5047814;28;20025;-79
2023/08/30 03:23:50;;;;;;;21.73;13.27;;;;;;;;;;5041000;28;20014;-79
2023/08/30 03:26:17;;;;;;;20.13;12.75;;;;;;;;;;5013327;28;20021;-78
2023/08/30 03:28:44;;;;;;;20.95;13.63;;;;;;;;;;5030792;28;20029;-79
2023/08/30 03:31:13;;;;;;;23.17;13.90;;;;;;;;;;5009031;28;20052;-79
2023/08/30 03:33:41;;;;;;;20.95;13.07;;;;;;;;;;5013201;28;20031;-78
2023/08/30 03:36:09;;;;;;;23.10;13.32;;;;;;;;;;5010794;28;20037;-78
2023/08/30 03:38:35;;;;;;;22.27;14.25;;;;;;;;;;5017630;28;20091;-79
2023/08/30 03:41:03;;;;;;;26.58;13.95;;;;;;;;;;5003567;28;20026;-78
2023/08/30 03:43:30;;;;;;;21.33;13.32;;;;;;;;;;5013582;28;20033;-80
2023/08/30 03:45:56;;;;;;;21.67;14.07;;;;;;;;;;4990448;28;20041;-77
2023/08/30 03:48:22;;;;;;;23.30;13.05;;;;;;;;;;5025285;28;20026;-78
2023/08/30 03:50:48;;;;;;;22.15;13.77;;;;;;;;;;5037367;28;20029;-80
2023/08/30 03:53:15;;;;;;;24.95;14.25;;;;;;;;;;5030941;28;20064;-79
2023/08/30 03:55:41;;;;;;;19.83;12.82;;;;;;;;;;5035777;28;20033;-77
2023/08/30 03:58:07;;;;;;;24.13;13.23;;;;;;;;;;5026074;28;20029;-78
2023/08/30 04:00:36;;;;;;;21.08;12.50;;;;;;;;;;5030574;28;20033;-78
2023/08/30 04:03:03;;;;;;;24.95;12.82;;;;;;;;;;5030276;28;20096;-79
2023/08/30 04:05:33;;;;;;;20.13;13.13;;;;;;;;;;5026311;28;20040;-79
2023/08/30 04:07:59;;;;;;;20.60;13.80;;;;;;;;;;5039543;28;21151;-79
2023/08/30 04:10:26;;;;;;;23.58;13.57;;;;;;;;;;5027560;28;20282;-79
2023/08/30 04:12:52;;;;;;;19.60;13.75;;;;;;;;;;5030558;28;20065;-79
2023/08/30 04:15:18;;;;;;;25.05;14.13;;;;;;;;;;5053495;28;20018;-79
2023/08/30 04:17:45;;;;;;;21.50;13.98;;;;;;;;;;5028498;28;20063;-79
2023/08/30 04:20:11;;;;;;;25.83;14.60;;;;;;;;;;5034139;28;20402;-78
2023/08/30 04:22:37;;;;;;;21.92;13.57;;;;;;;;;;5007515;28;20043;-78
2023/08/30 04:25:04;;;;;;;22.13;13.63;;;;;;;;;;5016360;28;20047;-79
2023/08/30 04:27:30;;;;;;;23.90;15.10;;;;;;;;;;5019469;28;20072;-78
2023/08/30 04:29:56;;;;;;;23.30;15.52;;;;;;;;;;5017676;28;20053;-77
2023/08/30 04:32:23;;;;;;;24.80;15.88;;;;;;;;;;5019593;28;20384;-79
2023/08/30 04:34:49;;;;;;;26.38;16.90;;;;;;;;;;5028088;28;20045;-79
2023/08/30 04:37:16;;;;;;;26.80;18.02;;;;;;;;;;5038702;28;20029;-80
2023/08/30 04:39:42;;;;;;;22.70;16.23;;;;;;;;;;5001998;28;20038;-78
2023/08/30 04:42:08;;;;;;;28.67;17.98;;;;;;;;;;5018651;28;20025;-78
2023/08/30 04:44:34;;;;;;;30.08;18.02;;;;;;;;;;5015678;28;20030;-78
2023/08/30 04:47:01;;;;;;;42.30;17.55;;;;;;;;;;5019675;28;20359;-79
2023/08/30 04:49:29;;;;;;;24.40;16.95;;;;;;;;;;5013568;28;20041;-80
2023/08/30 04:51:55;;;;;;;30.13;16.80;;;;;;;;;;5011559;28;20033;-79
2023/08/30 04:54:22;;;;;;;26.35;17.88;;;;;;;;;;5030015;28;20057;-79
2023/08/30 04:56:49;;;;;;;29.05;17.90;;;;;;;;;;5015719;28;20090;-79
2023/08/30 04:59:15;;;;;;;28.55;18.35;;;;;;;;;;5004108;28;20051;-79
2023/08/30 05:01:44;;;;;;;26.65;18.00;;;;;;;;;;5016504;28;20037;-80
2023/08/30 05:04:11;;;;;;;29.42;18.50;;;;;;;;;;5018961;28;20041;-77
2023/08/30 05:06:37;;;;;;;26.13;18.10;;;;;;;;;;5013256;28;20049;-79
2023/08/30 05:09:04;;;;;;;26.65;17.95;;;;;;;;;;5009063;28;20120;-80
2023/08/30 05:11:30;;;;;;;30.75;18.83;;;;;;;;;;5033297;28;20038;-80
2023/08/30 05:13:56;;;;;;;27.52;18.13;;;;;;;;;;5005315;28;20079;-80
2023/08/30 05:16:22;;;;;;;27.60;17.95;;;;;;;;;;5036905;28;20033;-79
2023/08/30 05:18:50;;;;;;;30.75;18.42;;;;;;;;;;5015862;28;20030;-79
2023/08/30 05:21:17;;;;;;;24.95;17.10;;;;;;;;;;4999368;28;20037;-79
2023/08/30 05:23:44;;;;;;;24.88;17.02;;;;;;;;;;5034479;28;20048;-79
2023/08/30 05:26:13;;;;;;;28.17;17.48;;;;;;;;;;5009374;28;20067;-78
2023/08/30 05:28:40;;;;;;;27.70;18.05;;;;;;;;;;5010206;28;20052;-78
2023/08/30 05:31:07;;;;;;;25.65;17.60;;;;;;;;;;5010924;28;20029;-78
2023/08/30 05:33:53;;;;;;;27.65;16.50;;;;;;;;;;5010853;28;20131;-79
2023/08/30 05:36:43;;;;;;;26.13;15.85;;;;;;;;;;5010081;28;20498;-77
2023/08/30 05:39:20;;;;;;;24.42;16.65;;;;;;;;;;5018724;28;20127;-76
2023/08/30 05:41:50;;;;;;;22.77;15.60;;;;;;;;;;5030483;28;20033;-78
2023/08/30 05:44:16;;;;;;;21.17;14.13;;;;;;;;;;5046410;28;20410;-78
2023/08/30 05:46:43;;;;;;;21.95;14.73;;;;;;;;;;5020140;28;20033;-80
2023/08/30 05:49:09;;;;;;;23.15;15.30;;;;;;;;;;5007904;28;20036;-76
2023/08/30 05:51:35;;;;;;;21.02;14.05;;;;;;;;;;5017894;28;20025;-77
2023/08/30 05:54:02;;;;;;;21.25;14.88;;;;;;;;;;5003391;28;20474;-80
2023/08/30 05:56:28;;;;;;;22.45;14.48;;;;;;;;;;5034871;28;20080;-77
2023/08/30 05:58:54;;;;;;;23.52;14.57;;;;;;;;;;5009406;28;20068;-77
2023/08/30 06:01:22;;;;;;;19.90;14.07;;;;;;;;;;5017652;28;20034;-78
2023/08/30 06:03:48;;;;;;;24.83;15.80;;;;;;;;;;5027798;28;20029;-77
2023/08/30 06:06:17;;;;;;;27.02;16.42;;;;;;;;;;5010209;28;20032;-79
2023/08/30 06:08:43;;;;;;;25.13;16.45;;;;;;;;;;5026233;28;20042;-79
2023/08/30 06:11:09;;;;;;;31.45;16.73;;;;;;;;;;5027145;28;20034;-81
2023/08/30 06:13:35;;;;;;;32.20;17.90;;;;;;;;;;5017789;28;20151;-82
2023/08/30 06:16:02;;;;;;;28.30;18.23;;;;;;;;;;5027240;28;20026;-81
2023/08/30 06:18:32;;;;;;;38.72;18.92;;;;;;;;;;5030405;28;20041;-83
2023/08/30 06:20:58;;;;;;;35.63;18.92;;;;;;;;;;5013123;28;20120;-83
2023/08/30 06:23:24;;;;;;;34.42;19.50;;;;;;;;;;5025638;28;20045;-83
2023/08/30 06:25:57;;;;;;;40.75;20.42;;;;;;;;;;5031815;28;20029;-86
2023/08/30 06:28:23;;;;;;;36.72;22.17;;;;;;;;;;5028527;28;20030;-84
2023/08/30 06:30:50;;;;;;;35.10;22.05;;;;;;;;;;5000080;28;20148;-81
2023/08/30 06:33:16;;;;;;;32.72;21.40;;;;;;;;;;5034916;28;20093;-83
2023/08/30 06:35:42;;;;;;;34.33;21.90;;;;;;;;;;5024742;28;20025;-82
2023/08/30 06:38:09;;;;;;;37.95;22.45;;;;;;;;;;5023781;28;20395;-82
2023/08/30 06:40:35;;;;;;;38.97;22.85;;;;;;;;;;5036418;28;20102;-81
2023/08/30 06:43:02;;;;;;;39.58;22.65;;;;;;;;;;5015034;28;20037;-80
2023/08/30 06:45:28;;;;;;;38.13;23.35;;;;;;;;;;5031579;28;20092;-82
2023/08/30 06:47:54;;;;;;;40.05;24.13;;;;;;;;;;5027699;28;20049;-80
2023/08/30 06:50:20;;;;;;;42.80;24.27;;;;;;;;;;4996994;28;20034;-81
2023/08/30 06:52:47;;;;;;;44.75;24.58;;;;;;;;;;5027250;28;20040;-81
2023/08/30 06:55:13;;;;;;;35.25;23.08;;;;;;;;;;5024303;28;20052;-81
2023/08/30 06:57:39;;;;;;;37.70;23.45;;;;;;;;;;5022798;28;20490;-80
2023/08/30 07:00:10;;;;;;;39.88;21.02;;;;;;;;;;5009562;28;20037;-84
2023/08/30 07:02:36;;;;;;;;;;;;;;;;;;5028164;28;20021;-82
2023/08/30 07:05:04;;;;;;;38.28;21.38;;;;;;;;;;5013012;28;20008;-81
2023/08/30 07:07:30;;;;;;;42.05;22.20;;;;;;;;;;4994097;28;20446;-84
2023/08/30 07:09:56;;;;;;;34.50;21.75;;;;;;;;;;5027130;28;20088;-84
2023/08/30 07:12:22;;;;;;;34.08;21.40;;;;;;;;;;5025197;28;20022;-81
2023/08/30 07:14:49;;;;;;;36.42;20.85;;;;;;;;;;5009142;28;20053;-82
2023/08/30 07:17:15;;;;;;;38.03;20.80;;;;;;;;;;4991899;28;20499;-81
2023/08/30 07:19:41;;;;;;;30.83;20.60;;;;;;;;;;5029944;28;20174;-84
2023/08/30 07:22:07;;;;;;;39.03;22.00;;;;;;;;;;5030732;28;20045;-82
2023/08/30 07:24:34;;;;;;;36.97;22.83;;;;;;;;;;5006912;28;20038;-83
2023/08/30 07:27:01;;;;;;;37.72;23.05;;;;;;;;;;5024896;28;20113;-80
2023/08/30 07:29:27;;;;;;;36.83;21.67;;;;;;;;;;5010351;28;20390;-81
2023/08/30 07:31:54;;;;;;;38.22;22.45;;;;;;;;;;5032059;28;20053;-81
2023/08/30 07:34:20;;;;;;;37.20;20.67;;;;;;;;;;5038869;28;21454;-81
2023/08/30 07:36:47;;;;;;;37.40;21.20;;;;;;;;;;5023262;28;20025;-80
2023/08/30 07:39:13;;;;;;;34.05;20.65;;;;;;;;;;5047827;28;20025;-83
2023/08/30 07:41:39;;;;;;;30.00;20.92;;;;;;;;;;5043317;28;20041;-81
2023/08/30 07:44:05;;;;;;;32.97;20.83;;;;;;;;;;5015361;28;20041;-81
2023/08/30 07:46:31;;;;;;;32.08;20.85;;;;;;;;;;5017936;28;20085;-83
2023/08/30 07:48:57;;;;;;;32.03;21.15;;;;;;;;;;5033814;28;20151;-82
2023/08/30 07:51:24;;;;;;;31.95;19.75;;;;;;;;;;5013937;28;20026;-82
2023/08/30 07:53:50;;;;;;;29.20;18.70;;;;;;;;;;5035754;28;20033;-84
2023/08/30 07:56:16;;;;;;;23.95;16.90;;;;;;;;;;5000356;28;20029;-87
2023/08/30 07:58:42;;;;;;;20.83;15.63;;;;;;;;;;5036979;28;20092;-87
2023/08/30 08:01:09;;;;;;;25.95;17.38;;;;;;;;;;5030885;28;20506;-81
2023/08/30 08:03:35;;;;;;;22.30;14.60;;;;;;;;;;5030834;28;20041;-83
2023/08/30 08:06:01;;;;;;;18.45;14.35;;;;;;;;;;5017242;28;20517;-85
2023/08/30 08:08:28;;;;;;;21.90;15.45;;;;;;;;;;5026212;28;20072;-87
2023/08/30 08:10:54;;;;;;;26.45;14.68;;;;;;;;;;5037753;28;20053;-81
2023/08/30 08:13:20;;;;;;;20.75;14.50;;;;;;;;;;5030492;28;20156;-81
2023/08/30 08:15:46;;;;;;;20.58;15.10;;;;;;;;;;5024465;28;20033;-81
2023/08/30 08:18:12;;;;;;;19.60;13.80;;;;;;;;;;5027876;28;20111;-82
2023/08/30 08:20:39;;;;;;;25.80;13.88;;;;;;;;;;5007095;28;20033;-82
2023/08/30 08:23:05;;;;;;;20.77;13.90;;;;;;;;;;5026682;28;20111;-81
2023/08/30 08:25:31;;;;;;;21.95;12.45;;;;;;;;;;4996987;28;20026;-81
2023/08/30 08:27:58;;;;;;;21.17;12.38;;;;;;;;;;5014984;28;20147;-81
2023/08/30 08:30:24;;;;;;;18.35;12.25;;;;;;;;;;5029526;28;20030;-79
2023/08/30 08:32:50;;;;;;;18.58;12.63;;;;;;;;;;5032162;28;20026;-82
2023/08/30 08:35:16;;;;;;;16.58;12.10;;;;;;;;;;5035051;28;20128;-79
2023/08/30 08:37:42;;;;;;;19.95;12.90;;;;;;;;;;5025469;28;20422;-83
2023/08/30 08:40:09;;;;;;;22.58;13.57;;;;;;;;;;5018835;28;20067;-81
2023/08/30 08:42:36;;;;;;;22.83;14.25;;;;;;;;;;5009310;28;20034;-83
2023/08/30 08:45:05;;;;;;;20.17;13.95;;;;;;;;;;5029430;28;20180;-81
2023/08/30 08:47:32;;;;;;;18.77;13.43;;;;;;;;;;5020585;28;20068;-82
2023/08/30 08:49:58;;;;;;;19.83;14.75;;;;;;;;;;5029205;28;20028;-80
2023/08/30 08:52:24;;;;;;;20.92;14.57;;;;;;;;;;5030276;28;20033;-80
2023/08/30 08:54:51;;;;;;;21.55;13.90;;;;;;;;;;5023836;28;20045;-80
2023/08/30 08:57:17;;;;;;;20.83;14.43;;;;;;;;;;5031789;28;20041;-81
2023/08/30 08:59:44;;;;;;;17.85;14.15;;;;;;;;;;5030761;28;20042;-80
2023/08/30 09:02:12;;;;;;;18.40;14.32;;;;;;;;;;5026658;28;20045;-79
2023/08/30 09:04:39;;;;;;;19.50;14.32;;;;;;;;;;5022634;28;20034;-82
2023/08/30 09:07:06;;;;;;;18.10;14.80;;;;;;;;;;5028960;28;20038;-79
2023/08/30 09:09:34;;;;;;;19.55;14.77;;;;;;;;;;4997687;28;20029;-81
2023/08/30 09:12:00;;;;;;;23.40;16.13;;;;;;;;;;4998410;28;20048;-82
2023/08/30 09:14:26;;;;;;;21.92;16.38;;;;;;;;;;5014596;28;20528;-79
2023/08/30 09:17:02;;;;;;;19.17;15.15;;;;;;;;;;5008761;28;20107;-81
2023/08/30 09:19:29;;;;;;;18.80;14.52;;;;;;;;;;5026175;28;20033;-81
2023/08/30 09:21:56;;;;;;;23.63;15.55;;;;;;;;;;5009646;28;20442;-79
2023/08/30 09:24:23;;;;;;;18.77;15.48;;;;;;;;;;5007698;28;20054;-80
2023/08/30 09:26:50;;;;;;;23.27;17.15;;;;;;;;;;5016519;28;20422;-80
2023/08/30 09:29:17;;;;;;;21.17;15.77;;;;;;;;;;5015412;28;20026;-81
2023/08/30 09:31:44;;;;;;;19.90;15.95;;;;;;;;;;5022820;28;20025;-79
2023/08/30 09:34:13;;;;;;;19.25;15.82;;;;;;;;;;5019306;28;20078;-78
2023/08/30 09:36:41;;;;;;;27.40;17.40;;;;;;;;;;5019827;28;20036;-78
2023/08/30 09:39:11;;;;;;;23.30;17.02;;;;;;;;;;5036772;28;20103;-78
2023/08/30 09:41:37;;;;;;;24.13;17.75;;;;;;;;;;5033862;28;20041;-80
2023/08/30 09:44:07;;;;;;;23.55;18.65;;;;;;;;;;5013563;28;20030;-80
2023/08/30 09:46:40;;;;;;;21.88;18.35;;;;;;;;;;5028659;28;20070;-81
2023/08/30 09:52:28;;;;;;;21.77;18.50;;;;;;;;;;5013288;28;20038;-79
2023/08/30 09:54:55;;;;;;;23.67;17.63;;;;;;;;;;5027300;28;20096;-80
2023/08/30 09:57:21;;;;;;;20.95;18.73;;;;;;;;;;5031083;28;20025;-80
2023/08/30 09:59:48;;;;;;;19.73;16.88;;;;;;;;;;5028505;28;20037;-78
2023/08/30 10:02:33;;;;;;;19.52;17.52;;;;;;;;;;5004364;28;20061;-80
2023/08/30 10:05:00;;;;;;;15.38;12.85;;;;;;;;;;5026077;28;20164;-78
2023/08/30 10:07:26;;;;;;;11.70;10.45;;;;;;;;;;5020541;28;20213;-78
2023/08/30 10:09:53;;;;;;;9.63;8.23;;;;;;;;;;5012406;28;20030;-77
2023/08/30 10:12:23;;;;;;;8.48;6.97;;;;;;;;;;5020462;28;20038;-78
2023/08/30 10:14:49;;;;;;;;;;;;;;;;;;5021921;28;20046;-78
2023/08/30 10:17:18;;;;;;;8.40;6.85;;;;;;;;;;5026307;28;20004;-77
2023/08/30 10:19:47;;;;;;;10.57;6.95;;;;;;;;;;5021878;28;20034;-80
2023/08/30 10:22:15;;;;;;;9.30;5.75;;;;;;;;;;5016888;28;20379;-77
2023/08/30 10:24:44;;;;;;;10.50;4.63;;;;;;;;;;5025364;28;20088;-80
2023/08/30 10:27:11;;;;;;;6.80;4.30;;;;;;;;;;5032201;28;20029;-78
2023/08/30 10:29:38;;;;;;;8.18;4.95;;;;;;;;;;5027972;28;20488;-76
2023/08/30 10:32:05;;;;;;;10.90;3.50;;;;;;;;;;5022791;28;20029;-76
2023/08/30 10:34:37;;;;;;;7.78;3.33;;;;;;;;;;5024861;28;20053;-78
2023/08/30 10:37:06;;;;;;;7.03;3.03;;;;;;;;;;5024738;28;20033;-77
2023/08/30 10:39:39;;;;;;;10.88;2.75;;;;;;;;;;5028245;28;20065;-78
2023/08/30 10:42:12;;;;;;;7.72;3.50;;;;;;;;;;5009395;28;20407;-80
2023/08/30 10:44:50;;;;;;;7.30;3.00;;;;;;;;;;5014770;28;20159;-78
2023/08/30 10:47:20;;;;;;;10.27;3.63;;;;;;;;;;5008984;28;20129;-79
2023/08/30 10:49:49;;;;;;;7.40;3.53;;;;;;;;;;5028769;28;20033;-76
2023/08/30 10:52:16;;;;;;;6.97;3.30;;;;;;;;;;5026704;28;20111;-78
2023/08/30 10:54:42;;;;;;;9.55;3.58;;;;;;;;;;5024765;28;20203;-76
2023/08/30 10:57:16;;;;;;;9.30;4.13;;;;;;;;;;5024851;28;20070;-77
2023/08/30 11:00:04;;;;;;;9.13;3.25;;;;;;;;;;5025738;28;20116;-79
2023/08/30 11:02:30;;;;;;;8.90;3.72;;;;;;;;;;5014906;28;20037;-78
2023/08/30 11:04:58;;;;;;;15.35;4.95;;;;;;;;;;4998696;28;20048;-79
2023/08/30 11:07:25;;;;;;;12.70;4.00;;;;;;;;;;5026574;28;20495;-80
2023/08/30 11:09:54;;;;;;;16.45;4.35;;;;;;;;;;5020317;28;20025;-77
2023/08/30 11:12:25;;;;;;;12.52;4.65;;;;;;;;;;5010808;28;20205;-78
2023/08/30 11:14:55;;;;;;;9.35;4.90;;;;;;;;;;5025864;28;20044;-77
2023/08/30 11:17:21;;;;;;;12.63;5.10;;;;;;;;;;5031796;28;20069;-79
2023/08/30 11:19:50;;;;;;;9.85;4.15;;;;;;;;;;5017364;28;20033;-80
2023/08/30 11:22:18;;;;;;;11.75;4.25;;;;;;;;;;5026909;28;20048;-79
2023/08/30 11:25:03;;;;;;;12.68;4.00;;;;;;;;;;4996303;28;20041;-77
2023/08/30 11:27:30;;;;;;;13.55;4.18;;;;;;;;;;5026936;28;20036;-79
2023/08/30 11:30:00;;;;;;;11.07;3.33;;;;;;;;;;5026644;28;20021;-79
2023/08/30 11:32:26;;;;;;;;;;;;;;;;;;5010819;28;20030;-79
2023/08/30 11:34:57;;;;;;;12.38;3.13;;;;;;;;;;5027724;28;19954;-76
2023/08/30 11:37:24;;;;;;;14.70;3.13;;;;;;;;;;5034062;28;20095;-77
2023/08/30 11:39:53;;;;;;;14.27;3.10;;;;;;;;;;5031877;28;20588;-77
2023/08/30 11:42:19;;;;;;;10.02;2.88;;;;;;;;;;5007453;28;20044;-78
2023/08/30 11:44:46;;;;;;;12.43;3.47;;;;;;;;;;5021815;28;20068;-78
2023/08/30 11:47:18;;;;;;;9.70;2.92;;;;;;;;;;5021747;28;20121;-79
2023/08/30 11:49:44;;;;;;;13.18;3.33;;;;;;;;;;5022149;28;20022;-79
2023/08/30 11:52:11;;;;;;;12.68;3.08;;;;;;;;;;5019164;28;20084;-77
2023/08/30 11:54:37;;;;;;;8.70;3.63;;;;;;;;;;4996840;28;20053;-78
2023/08/30 11:57:05;;;;;;;14.30;3.08;;;;;;;;;;5026409;28;20084;-79
2023/08/30 11:59:35;;;;;;;13.35;2.85;;;;;;;;;;5027473;28;20113;-80
2023/08/30 12:02:02;;;;;;;11.48;2.80;;;;;;;;;;4997751;28;20041;-77
2023/08/30 12:04:28;;;;;;;9.57;3.13;;;;;;;;;;5002962;28;20060;-80
2023/08/30 12:06:54;;;;;;;9.02;2.70;;;;;;;;;;5017708;28;20495;-78
2023/08/30 12:09:21;;;;;;;11.95;2.67;;;;;;;;;;5029562;28;20064;-77
2023/08/30 12:11:48;;;;;;;10.63;2.47;;;;;;;;;;5024638;28;20041;-76
2023/08/30 12:14:15;;;;;;;7.03;2.30;;;;;;;;;;5025612;28;20049;-78
2023/08/30 12:16:41;;;;;;;10.40;2.60;;;;;;;;;;5019779;28;20026;-77
2023/08/30 12:19:09;;;;;;;12.50;2.47;;;;;;;;;;5023313;28;20042;-78
2023/08/30 12:21:44;;;;;;;8.68;2.53;;;;;;;;;;5022780;28;20030;-78
2023/08/30 12:24:11;;;;;;;12.23;2.50;;;;;;;;;;5026582;28;20038;-78
2023/08/30 12:26:38;;;;;;;11.35;2.58;;;;;;;;;;5020514;28;20030;-77
2023/08/30 12:29:05;;;;;;;11.98;2.70;;;;;;;;;;5005206;28;20125;-78
2023/08/30 12:31:32;;;;;;;8.50;2.25;;;;;;;;;;5009528;28;20045;-79
2023/08/30 12:33:58;;;;;;;12.25;3.50;;;;;;;;;;5024085;28;20034;-78
2023/08/30 12:36:24;;;;;;;17.05;3.00;;;;;;;;;;5029029;28;20029;-79
2023/08/30 12:38:51;;;;;;;10.70;2.65;;;;;;;;;;5017904;28;20029;-77
2023/08/30 12:41:17;;;;;;;11.60;2.67;;;;;;;;;;5019504;28;20072;-77
2023/08/30 12:43:43;;;;;;;12.88;3.17;;;;;;;;;;5028907;28;20495;-79
2023/08/30 12:46:09;;;;;;;11.73;2.92;;;;;;;;;;5029869;28;20085;-78
2023/08/30 12:48:38;;;;;;;12.60;2.83;;;;;;;;;;5032914;28;20037;-78
2023/08/30 12:51:04;;;;;;;11.43;3.28;;;;;;;;;;5022429;28;20083;-78
2023/08/30 12:53:31;;;;;;;14.30;3.25;;;;;;;;;;5020102;28;20030;-78
2023/08/30 12:55:57;;;;;;;9.15;3.30;;;;;;;;;;5025819;28;20033;-78
2023/08/30 12:58:23;;;;;;;9.95;3.78;;;;;;;;;;5012614;28;20116;-78
2023/08/30 13:00:50;;;;;;;14.15;3.10;;;;;;;;;;5014196;28;20033;-79
2023/08/30 13:03:16;;;;;;;14.05;2.90;;;;;;;;;;4996780;28;20426;-79
2023/08/30 13:05:42;;;;;;;11.98;3.40;;;;;;;;;;5013931;28;20051;-77
2023/08/30 13:08:08;;;;;;;10.77;3.42;;;;;;;;;;5028628;28;20057;-77
2023/08/30 13:10:34;;;;;;;12.43;3.20;;;;;;;;;;5023699;28;20116;-77
2023/08/30 13:13:01;;;;;;;13.57;3.00;;;;;;;;;;5016860;28;20036;-78
2023/08/30 13:15:27;;;;;;;10.52;2.78;;;;;;;;;;5023637;28;20057;-78
2023/08/30 13:17:53;;;;;;;11.23;2.88;;;;;;;;;;5032167;28;20036;-79
2023/08/30 13:20:19;;;;;;;10.48;2.78;;;;;;;;;;5023043;28;20038;-78
2023/08/30 13:22:46;;;;;;;8.70;3.03;;;;;;;;;;5014876;28;20476;-77
2023/08/30 13:25:13;;;;;;;12.50;2.58;;;;;;;;;;5013682;28;20350;-76
2023/08/30 13:27:39;;;;;;;7.57;2.50;;;;;;;;;;4998916;28;20033;-80
2023/08/30 13:30:05;;;;;;;12.18;3.25;;;;;;;;;;5026560;28;20180;-79
2023/08/30 13:32:31;;;;;;;6.40;2.33;;;;;;;;;;5032773;28;20030;-78
2023/08/30 13:34:57;;;;;;;11.35;2.45;;;;;;;;;;5016437;28;20083;-78
2023/08/30 13:37:24;;;;;;;9.23;2.55;;;;;;;;;;5029607;28;20025;-79
2023/08/30 13:39:50;;;;;;;8.38;2.35;;;;;;;;;;5013961;28;20080;-77
2023/08/30 13:42:16;;;;;;;7.28;1.90;;;;;;;;;;5021858;28;20590;-78
2023/08/30 13:44:43;;;;;;;8.60;2.22;;;;;;;;;;5012642;28;20121;-78
2023/08/30 13:47:10;;;;;;;8.63;2.38;;;;;;;;;;4980707;28;20076;-77
2023/08/30 13:49:37;;;;;;;10.05;2.42;;;;;;;;;;4993917;28;20034;-77
2023/08/30 13:52:03;;;;;;;10.00;2.63;;;;;;;;;;5024793;28;20384;-79
2023/08/30 13:54:29;;;;;;;9.23;2.65;;;;;;;;;;5020726;28;20506;-78
2023/08/30 13:56:59;;;;;;;13.30;3.90;;;;;;;;;;5023042;28;20033;-78
2023/08/30 13:59:25;;;;;;;12.23;2.88;;;;;;;;;;5012956;28;20032;-78
2023/08/30 14:01:51;;;;;;;7.55;2.78;;;;;;;;;;5007040;28;20040;-78
2023/08/30 14:04:17;;;;;;;14.82;3.15;;;;;;;;;;5001477;28;20033;-77
2023/08/30 14:06:43;;;;;;;8.45;2.88;;;;;;;;;;5019401;28;20166;-79
2023/08/30 14:09:10;;;;;;;12.80;3.30;;;;;;;;;;5018050;28;20045;-76
2023/08/30 14:11:37;;;;;;;9.25;2.70;;;;;;;;;;5010908;28;20313;-78
2023/08/30 14:14:04;;;;;;;6.03;1.70;;;;;;;;;;5008055;28;20042;-78
2023/08/30 14:16:30;;;;;;;5.85;1.65;;;;;;;;;;5016238;28;20033;-77
2023/08/30 14:18:59;;;;;;;11.00;1.80;;;;;;;;;;5021887;28;20030;-79
2023/08/30 14:21:27;;;;;;;7.28;2.17;;;;;;;;;;5022165;28;20029;-78
2023/08/30 14:23:53;;;;;;;7.07;2.10;;;;;;;;;;5016609;28;20044;-79
2023/08/30 14:26:19;;;;;;;8.30;1.83;;;;;;;;;;5029610;28;20083;-78
2023/08/30 14:28:45;;;;;;;9.85;1.77;;;;;;;;;;5020788;28;20039;-78